Time;durP1;ratioP1;P1;durP2;ratioP2;P2;SDS_P1;SDS_P2;PMS_P1;PMS_P2;Temp;Humidity;BMP_temperature;BMP_pressure;BME280_temperature;BME280_humidity;BME280_pressure;Samples;Min_cycle;Max_cycle;Signal;HPM_P1;HPM_P2
2022/11/01 00:00:57;;;;;;;;;;;;;;;25.63;46.00;94373.94;5028621;28;7223;-59
2022/11/01 00:03:39;;;;;;;;;;;;;;;25.63;45.97;94382.94;5045236;28;7229;-59
2022/11/01 00:06:14;;;;;;;;;;;;;;;25.62;45.47;94359.41;5031301;28;8527;-59
2022/11/01 00:08:55;;;;;;;;;;;;;;;25.63;45.74;94355.41;5051068;28;7071;-59
2022/11/01 00:11:30;;;;;;;;;;;;;;;25.62;45.90;94366.94;5034178;28;7228;-59
2022/11/01 00:13:58;;;;;;;;;;;;;;;25.60;45.42;94364.69;5033820;28;7179;-60
2022/11/01 00:16:24;;;;;;;;;;;;;;;25.59;46.01;94349.44;5022467;28;7195;-59
2022/11/01 00:18:52;;;;;;;;;;;;;;;25.61;45.45;94351.66;5039908;28;7627;-60
2022/11/01 00:21:21;;;;;;;;;;;;;;;25.59;45.55;94349.44;5033001;28;9425;-59
2022/11/01 00:23:48;;;;;;;;;;;;;;;25.60;45.16;94344.69;5068900;28;7133;-59
2022/11/01 00:26:24;;;;;;;;;;;;;;;25.59;45.25;94348.69;5091773;28;8237;-59
2022/11/01 00:28:56;;;;;;;;;;;;;;;25.56;45.27;94355.94;5079559;28;9422;-59
2022/11/01 00:31:28;;;;;;;;;;;;;;;25.58;46.17;94345.16;5081873;28;7455;-59
2022/11/01 00:34:02;;;;;;;;;;;;;;;25.59;44.97;94346.69;5065847;28;7316;-59
2022/11/01 00:36:30;;;;;;;;;;;;;;;25.56;45.87;94338.66;5073020;28;9139;-59
2022/11/01 00:38:56;;;;;;;;;;;;;;;25.58;45.60;94345.16;5078041;28;7215;-59
2022/11/01 00:41:28;;;;;;;;;;;;;;;25.58;45.83;94347.19;5099467;28;7220;-59
2022/11/01 00:43:55;;;;;;;;;;;;;;;25.54;46.34;94352.22;5088281;28;9579;-59
2022/11/01 00:46:21;;;;;;;;;;;;;;;25.53;46.18;94343.22;5071386;28;7345;-59
2022/11/01 00:48:48;;;;;;;;;;;;;;;25.53;46.02;94340.47;5087890;28;6949;-59
2022/11/01 00:51:20;;;;;;;;;;;;;;;25.51;45.52;94343.00;5081704;28;7629;-59
2022/11/01 00:53:54;;;;;;;;;;;;;;;25.53;45.94;94343.22;5071710;28;7322;-59
2022/11/01 00:56:22;;;;;;;;;;;;;;;25.51;45.38;94343.00;5077998;28;7045;-59
2022/11/01 00:58:56;;;;;;;;;;;;;;;25.48;45.82;94344.00;5083511;28;7484;-59
2022/11/01 01:01:31;;;;;;;;;;;;;;;25.48;45.60;94338.50;5074771;28;7219;-59
2022/11/01 01:04:27;;;;;;;;;;;;;;;25.49;45.29;94339.25;5075073;28;9107;-59
2022/11/01 01:07:14;;;;;;;;;;;;;;;25.45;45.39;94328.50;4981510;28;7269;-59
2022/11/01 01:09:40;;;;;;;;;;;;;;;25.47;46.12;94336.25;4989762;28;10540;-59
2022/11/01 01:12:16;;;;;;;;;;;;;;;25.48;45.89;94346.75;4993285;28;9121;-59
2022/11/01 01:15:00;;;;;;;;;;;;;;;25.50;45.92;94338.72;5001220;28;7591;-59
2022/11/01 01:17:27;;;;;;;;;;;;;;;25.49;46.34;94339.97;4994205;28;7020;-59
2022/11/01 01:19:53;;;;;;;;;;;;;;;25.47;45.61;94341.75;4991743;28;7222;-59
2022/11/01 01:22:21;;;;;;;;;;;;;;;25.45;45.71;94334.00;5014202;28;9065;-59
2022/11/01 01:24:47;;;;;;;;;;;;;;;25.44;46.34;94343.53;4984453;28;9718;-59
2022/11/01 01:27:16;;;;;;;;;;;;;;;25.47;45.85;94348.00;4992738;28;8797;-59
2022/11/01 01:29:53;;;;;;;;;;;;;;;25.43;45.87;94337.25;4994289;28;7266;-59
2022/11/01 01:32:24;;;;;;;;;;;;;;;25.45;45.70;94339.50;4994183;28;7616;-59
2022/11/01 01:34:52;;;;;;;;;;;;;;;25.46;45.95;94340.25;4995667;28;6979;-59
2022/11/01 01:37:20;;;;;;;;;;;;;;;25.44;45.62;94332.50;5013750;28;7291;-59
2022/11/01 01:39:49;;;;;;;;;;;;;;;25.44;46.00;94332.50;5002512;28;7337;-59
2022/11/01 01:42:31;;;;;;;;;;;;;;;25.44;45.43;94332.50;5017182;28;9767;-59
2022/11/01 01:45:12;;;;;;;;;;;;;;;25.43;46.02;94331.75;5089236;28;9096;-59
2022/11/01 01:47:53;;;;;;;;;;;;;;;25.42;46.05;94326.78;5074561;28;9000;-59
2022/11/01 01:50:34;;;;;;;;;;;;;;;25.39;46.14;94334.00;5076414;28;7098;-59
2022/11/01 01:53:39;;;;;;;;;;;;;;;25.40;45.83;94334.78;5081035;28;8515;-59
2022/11/01 01:56:38;;;;;;;;;;;;;;;25.43;45.52;94342.78;5075440;28;6981;-59
2022/11/01 01:59:12;;;;;;;;;;;;;;;25.42;46.25;94341.25;5019437;28;7434;-59
2022/11/01 02:01:42;;;;;;;;;;;;;;;25.42;46.12;94351.56;5032570;28;7217;-59
2022/11/01 02:04:36;;;;;;;;;;;;;;;25.41;46.38;94347.25;5031239;28;7415;-59
2022/11/01 02:07:12;;;;;;;;;;;;;;;25.40;46.30;94349.25;5013422;28;7095;-59
2022/11/01 02:09:39;;;;;;;;;;;;;;;25.39;45.48;94344.28;5002943;28;9233;-59
2022/11/01 02:12:30;;;;;;;;;;;;;;;25.40;45.63;94345.78;5015181;28;7080;-59
2022/11/01 02:15:12;;;;;;;;;;;;;;;25.39;45.36;94344.28;5027566;28;7466;-59
2022/11/01 02:18:17;;;;;;;;;;;;;;;25.38;45.43;94340.75;5012428;28;7187;-60
2022/11/01 02:21:01;;;;;;;;;;;;;;;25.39;45.98;94341.53;5028078;28;7017;-59
2022/11/01 02:23:58;;;;;;;;;;;;;;;25.39;46.05;94344.28;5020657;28;7115;-59
2022/11/01 02:27:14;;;;;;;;;;;;;;;25.37;45.76;94358.56;5010928;28;7181;-59
2022/11/01 02:30:17;;;;;;;;;;;;;;;25.33;46.49;94365.59;4951973;28;9403;-59
2022/11/01 02:33:05;;;;;;;;;;;;;;;25.34;45.99;94376.09;4957797;28;7285;-59
2022/11/01 02:35:40;;;;;;;;;;;;;;;25.36;45.86;94375.56;5002172;28;7274;-59
2022/11/01 02:38:22;;;;;;;;;;;;;;;25.34;45.62;94378.09;5010324;28;9203;-59
2022/11/01 02:41:11;;;;;;;;;;;;;;;25.34;46.16;94384.34;5013408;28;7803;-59
2022/11/01 02:43:53;;;;;;;;;;;;;;;25.34;45.72;94389.09;5030654;28;9392;-59
2022/11/01 02:47:00;;;;;;;;;;;;;;;25.33;45.88;94390.38;5029744;28;9776;-60
2022/11/01 02:49:59;;;;;;;;;;;;;;;25.34;46.27;94394.59;5002464;28;9726;-59
2022/11/01 02:52:40;;;;;;;;;;;;;;;25.33;45.71;94399.38;5000960;28;7213;-59
2022/11/01 02:55:30;;;;;;;;;;;;;;;25.32;46.10;94403.38;4991652;28;7408;-59
2022/11/01 02:58:33;;;;;;;;;;;;;;;25.31;46.55;94412.16;4991988;28;8922;-59
2022/11/01 03:01:25;;;;;;;;;;;;;;;25.30;46.28;94413.41;4940835;28;9733;-59
2022/11/01 03:04:16;;;;;;;;;;;;;;;25.28;46.14;94404.91;4916652;29;9389;-59
2022/11/01 03:06:54;;;;;;;;;;;;;;;25.30;46.07;94413.41;4967859;28;9149;-59
2022/11/01 03:09:59;;;;;;;;;;;;;;;25.32;45.62;94421.91;4953597;28;7329;-59
2022/11/01 03:12:50;;;;;;;;;;;;;;;25.30;46.19;94421.66;4961873;28;7210;-59
2022/11/01 03:15:47;;;;;;;;;;;;;;;25.30;46.22;94438.19;4953210;28;6848;-60
2022/11/01 03:18:38;;;;;;;;;;;;;;;25.29;46.13;94425.69;4945190;28;6832;-60
2022/11/01 03:21:14;;;;;;;;;;;;;;;25.31;45.88;94431.44;4952262;28;7169;-60
2022/11/01 03:24:14;;;;;;;;;;;;;;;25.30;46.13;94421.66;4953226;28;6998;-60
2022/11/01 03:26:44;;;;;;;;;;;;;;;25.30;45.82;94427.16;4944303;28;7024;-60
2022/11/01 03:29:13;;;;;;;;;;;;;;;25.27;46.02;94430.94;4971238;28;7272;-60
2022/11/01 03:31:43;;;;;;;;;;;;;;;25.28;46.50;94433.19;4986585;28;7305;-60
2022/11/01 03:34:32;;;;;;;;;;;;;;;25.27;45.76;94428.19;5007489;28;7048;-60
2022/11/01 03:37:33;;;;;;;;;;;;;;;25.26;46.07;94430.19;5054861;28;7875;-60
2022/11/01 03:40:29;;;;;;;;;;;;;;;25.26;46.36;94429.44;5057305;28;6832;-60
2022/11/01 03:43:29;;;;;;;;;;;;;;;25.25;46.50;94439.69;5068003;28;6977;-60
2022/11/01 03:46:01;;;;;;;;;;;;;;;25.24;45.93;94440.97;5081824;28;8994;-60
2022/11/01 03:48:31;;;;;;;;;;;;;;;25.24;46.29;94446.47;5100525;28;6998;-60
2022/11/01 03:51:02;;;;;;;;;;;;;;;25.24;46.44;94440.97;5089152;28;7868;-60
2022/11/01 03:53:47;;;;;;;;;;;;;;;25.24;45.95;94440.22;5090897;28;6927;-60
2022/11/01 03:56:20;;;;;;;;;;;;;;;25.22;46.44;94448.22;5088324;28;7235;-60
2022/11/01 03:58:46;;;;;;;;;;;;;;;25.20;46.01;94446.00;5092746;28;7406;-60
2022/11/01 04:01:14;;;;;;;;;;;;;;;25.21;46.29;94446.72;5075938;28;6980;-59
2022/11/01 04:03:56;;;;;;;;;;;;;;;25.22;46.63;94460.00;5073372;28;7227;-60
2022/11/01 04:06:27;;;;;;;;;;;;;;;25.22;46.08;94450.97;5076296;28;6969;-60
2022/11/01 04:08:54;;;;;;;;;;;;;;;25.21;46.45;94457.72;5083736;28;7325;-60
2022/11/01 04:11:20;;;;;;;;;;;;;;;25.19;45.99;94465.75;5092779;28;9071;-60
2022/11/01 04:22:20;;;;;;;;;;;;;;;25.16;46.13;94477.78;5087421;28;7372;-60
2022/11/01 04:24:48;;;;;;;;;;;;;;;25.16;46.02;94483.28;5086714;28;7243;-60
2022/11/01 04:27:23;;;;;;;;;;;;;;;25.13;46.69;94474.03;5086388;28;7230;-60
2022/11/01 04:29:57;;;;;;;;;;;;;;;25.16;46.65;94483.28;5072600;28;7111;-60
2022/11/01 04:32:23;;;;;;;;;;;;;;;25.17;46.24;94490.28;5081928;28;9085;-60
2022/11/01 04:34:49;;;;;;;;;;;;;;;25.15;46.31;94490.03;5088189;28;7365;-60
2022/11/01 04:37:26;;;;;;;;;;;;;;;25.16;46.80;94488.78;5098524;28;7218;-60
2022/11/01 04:39:56;;;;;;;;;;;;;;;25.14;45.96;94494.06;5087341;28;6976;-60
2022/11/01 04:42:33;;;;;;;;;;;;;;;25.15;46.19;94506.56;5077420;28;7005;-60
2022/11/01 04:45:29;;;;;;;;;;;;;;;25.16;46.27;94508.06;5094339;28;7780;-60
2022/11/01 04:48:19;;;;;;;;;;;;;;;25.15;46.22;94510.06;5000719;28;7304;-60
2022/11/01 04:50:59;;;;;;;;;;;;;;;25.11;46.55;94511.56;5027419;28;8507;-60
2022/11/01 04:53:57;;;;;;;;;;;;;;;25.12;45.79;94513.09;5031235;28;9094;-59
2022/11/01 04:56:35;;;;;;;;;;;;;;;25.12;46.24;94526.84;4939609;28;7098;-60
2022/11/01 04:59:18;;;;;;;;;;;;;;;25.13;46.61;94531.84;4951684;28;7199;-60
2022/11/01 05:02:19;;;;;;;;;;;;;;;25.11;45.87;94534.34;4956025;28;9003;-59
2022/11/01 05:04:57;;;;;;;;;;;;;;;25.11;46.41;94539.84;4901533;29;8657;-60
2022/11/01 05:07:24;;;;;;;;;;;;;;;25.13;45.98;94544.84;4896478;29;9394;-60
2022/11/01 05:10:23;;;;;;;;;;;;;;;25.10;45.92;94554.84;4898309;29;7268;-60
2022/11/01 05:12:59;;;;;;;;;;;;;;;25.11;46.01;94561.13;4906614;29;7027;-60
2022/11/01 05:15:43;;;;;;;;;;;;;;;25.10;46.69;94551.38;4907991;29;7252;-60
2022/11/01 05:18:09;;;;;;;;;;;;;;;25.09;46.34;94556.13;4912904;29;7014;-60
2022/11/01 05:20:35;;;;;;;;;;;;;;;25.10;46.34;94565.84;4914390;29;7260;-60
2022/11/01 05:23:03;;;;;;;;;;;;;;;25.08;46.05;94570.38;4902025;29;7471;-60
2022/11/01 05:25:48;;;;;;;;;;;;;;;25.09;46.13;94582.88;4965483;28;7378;-60
2022/11/01 05:28:32;;;;;;;;;;;;;;;25.11;46.68;94574.88;4982860;28;7320;-59
2022/11/01 05:30:58;;;;;;;;;;;;;;;25.09;46.14;94582.88;4979115;28;7009;-59
2022/11/01 05:33:38;;;;;;;;;;;;;;;25.10;46.09;94579.63;5033039;28;9656;-59
2022/11/01 05:36:04;;;;;;;;;;;;;;;25.09;45.99;94582.88;5009544;28;7379;-59
2022/11/01 05:38:34;;;;;;;;;;;;;;;25.11;46.12;94580.38;5003886;28;9488;-59
2022/11/01 05:41:03;;;;;;;;;;;;;;;25.12;46.11;94584.66;5071825;28;7332;-60
2022/11/01 05:43:38;;;;;;;;;;;;;;;25.11;46.34;94594.13;5089522;28;6988;-59
2022/11/01 05:46:10;;;;;;;;;;;;;;;25.15;46.97;94592.63;5082445;28;9719;-59
2022/11/01 05:48:35;;;;;;;;;;;;;;;25.19;46.84;94597.88;5080379;28;7372;-59
2022/11/01 05:51:03;;;;;;;;;;;;;;;25.21;47.12;94603.63;5078918;28;7434;-59
2022/11/01 05:53:30;;;;;;;;;;;;;;;25.17;46.32;94614.16;5075334;28;7375;-59
2022/11/01 05:56:07;;;;;;;;;;;;;;;25.12;47.02;94609.41;5079616;28;9483;-59
2022/11/01 05:58:39;;;;;;;;;;;;;;;25.10;46.18;94609.91;5081674;28;6997;-59
2022/11/01 06:01:16;;;;;;;;;;;;;;;25.07;45.92;94610.91;5079484;28;7232;-59
2022/11/01 06:03:49;;;;;;;;;;;;;;;25.03;45.98;94607.69;5085799;28;7131;-59
2022/11/01 06:06:15;;;;;;;;;;;;;;;25.03;46.65;94606.91;5094014;28;9002;-60
2022/11/01 06:08:41;;;;;;;;;;;;;;;25.02;45.96;94617.16;5076746;28;7482;-59
2022/11/01 06:11:07;;;;;;;;;;;;;;;25.04;46.52;94617.41;5095359;28;7076;-60
2022/11/01 06:13:57;;;;;;;;;;;;;;;25.07;46.66;94616.41;5085051;28;7230;-59
2022/11/01 06:16:42;;;;;;;;;;;;;;;25.13;46.03;94621.91;5090936;28;7017;-59
2022/11/01 06:19:08;;;;;;;;;;;;;;;25.17;46.33;94631.41;5094791;28;7114;-59
2022/11/01 06:21:37;;;;;;;;;;;;;;;25.22;46.50;94635.41;5077227;28;7487;-60
2022/11/01 06:24:05;;;;;;;;;;;;;;;25.25;46.41;94631.66;5080522;28;7222;-60
2022/11/01 06:26:38;;;;;;;;;;;;;;;25.29;46.33;94638.41;5084759;28;7318;-59
2022/11/01 06:29:10;;;;;;;;;;;;;;;25.33;46.14;94630.66;5088727;28;9654;-59
2022/11/01 06:31:46;;;;;;;;;;;;;;;25.35;45.90;94630.16;5088537;28;7424;-59
2022/11/01 06:34:23;;;;;;;;;;;;;;;25.38;46.05;94632.63;5077876;28;10800;-59
2022/11/01 06:36:55;;;;;;;;;;;;;;;25.40;45.70;94632.16;5074095;28;8999;-59
2022/11/01 06:39:39;;;;;;;;;;;;;;;25.42;45.54;94646.91;5074908;28;7040;-59
2022/11/01 06:42:11;;;;;;;;;;;;;;;25.46;45.54;94637.66;5083478;28;7099;-59
2022/11/01 06:44:39;;;;;;;;;;;;;;;25.48;45.66;94649.69;5090808;28;7027;-60
2022/11/01 06:47:06;;;;;;;;;;;;;;;25.50;45.82;94643.66;5089024;28;9941;-59
2022/11/01 06:49:34;;;;;;;;;;;;;;;25.50;45.60;94638.91;5080801;28;9392;-59
2022/11/01 06:52:03;;;;;;;;;;;;;;;25.52;45.30;94646.66;5082832;28;6973;-59
2022/11/01 06:54:30;;;;;;;;;;;;;;;25.54;44.97;94646.91;5081698;28;6995;-60
2022/11/01 06:57:00;;;;;;;;;;;;;;;25.56;45.39;94650.66;5085082;28;7028;-59
2022/11/01 06:59:27;;;;;;;;;;;;;;;25.57;45.03;94652.16;5105248;28;7849;-59
2022/11/01 07:01:57;;;;;;;;;;;;;;;25.62;45.39;94651.38;5075818;28;9146;-59
2022/11/01 07:04:22;;;;;;;;;;;;;;;25.66;45.33;94660.16;5088903;28;7035;-60
2022/11/01 07:06:52;;;;;;;;;;;;;;;25.71;45.03;94653.13;5087856;28;9759;-60
2022/11/01 07:09:19;;;;;;;;;;;;;;;25.77;45.45;94653.88;5075249;28;6995;-59
2022/11/01 07:11:46;;;;;;;;;;;;;;;25.80;45.04;94656.34;5087563;28;6983;-59
2022/11/01 07:14:21;;;;;;;;;;;;;;;25.85;45.28;94652.84;5072625;28;7233;-59
2022/11/01 07:16:47;;;;;;;;;;;;;;;25.89;44.56;94655.31;5088780;28;7220;-59
2022/11/01 07:19:15;;;;;;;;;;;;;;;25.92;45.13;94654.31;5084021;28;7266;-60
2022/11/01 07:21:43;;;;;;;;;;;;;;;25.95;44.31;94659.56;5076854;28;7111;-59
2022/11/01 07:24:12;;;;;;;;;;;;;;;25.96;44.62;94663.81;5083076;28;7043;-60
2022/11/01 07:26:43;;;;;;;;;;;;;;;25.99;44.63;94671.06;5098050;28;7275;-60
2022/11/01 07:29:24;;;;;;;;;;;;;;;26.01;44.99;94668.53;5080208;28;9496;-60
2022/11/01 07:31:50;;;;;;;;;;;;;;;26.04;44.46;94675.81;5080095;28;7230;-59
2022/11/01 07:34:16;;;;;;;;;;;;;;;26.05;44.34;94676.56;5090569;28;7069;-59
2022/11/01 07:36:58;;;;;;;;;;;;;;;26.04;44.45;94680.56;5090962;28;8629;-60
2022/11/01 07:39:26;;;;;;;;;;;;;;;26.04;44.26;94684.09;5088205;28;6989;-60
2022/11/01 07:41:58;;;;;;;;;;;;;;;26.08;44.87;94681.06;5085856;28;7342;-60
2022/11/01 07:44:30;;;;;;;;;;;;;;;26.08;44.91;94676.31;5080026;28;7263;-60
2022/11/01 07:46:58;;;;;;;;;;;;;;;26.09;44.54;94675.09;5087087;28;6984;-60
2022/11/01 07:49:25;;;;;;;;;;;;;;;26.09;44.75;94669.56;5085144;28;7358;-60
2022/11/01 07:51:55;;;;;;;;;;;;;;;26.11;44.66;94667.06;5073413;28;7332;-59
2022/11/01 07:54:21;;;;;;;;;;;;;;;26.12;45.29;94670.56;5078196;28;6969;-60
2022/11/01 07:56:52;;;;;;;;;;;;;;;26.10;44.42;94678.56;5078157;28;7426;-60
2022/11/01 07:59:20;;;;;;;;;;;;;;;26.09;44.54;94668.81;5080372;28;7090;-60
2022/11/01 08:01:51;;;;;;;;;;;;;;;26.10;44.79;94673.81;5079641;28;6949;-60
2022/11/01 08:04:19;;;;;;;;;;;;;;;26.09;45.19;94664.06;5082276;28;7208;-60
2022/11/01 08:06:45;;;;;;;;;;;;;;;26.11;44.95;94664.28;5076691;28;6944;-59
2022/11/01 08:09:29;;;;;;;;;;;;;;;26.09;44.83;94666.81;5080227;28;7043;-60
2022/11/01 08:12:00;;;;;;;;;;;;;;;26.07;45.07;94674.81;5084227;28;7074;-59
2022/11/01 08:14:36;;;;;;;;;;;;;;;26.04;44.55;94670.31;5073229;28;7414;-60
2022/11/01 08:17:16;;;;;;;;;;;;;;;26.04;44.90;94673.06;5094752;28;8670;-60
2022/11/01 08:19:47;;;;;;;;;;;;;;;26.02;44.46;94672.81;5089102;28;7240;-60
2022/11/01 08:22:15;;;;;;;;;;;;;;;26.02;45.08;94681.09;5076207;28;7236;-59
2022/11/01 08:24:43;;;;;;;;;;;;;;;26.02;45.38;94686.59;5089998;28;8921;-60
2022/11/01 08:27:24;;;;;;;;;;;;;;;26.00;44.97;94683.59;5100710;28;7216;-60
2022/11/01 08:29:53;;;;;;;;;;;;;;;25.99;45.33;94684.84;5067271;28;7001;-59
2022/11/01 08:32:24;;;;;;;;;;;;;;;25.98;45.30;94691.63;5097604;28;9329;-60
2022/11/01 08:34:55;;;;;;;;;;;;;;;25.96;45.27;94679.59;5081097;28;7253;-60
2022/11/01 08:37:29;;;;;;;;;;;;;;;25.96;45.13;94685.88;5080181;28;7414;-59
2022/11/01 08:39:56;;;;;;;;;;;;;;;25.95;44.70;94689.13;5073380;28;9093;-60
2022/11/01 08:42:32;;;;;;;;;;;;;;;25.96;45.68;94690.63;5086942;28;7234;-60
2022/11/01 08:45:00;;;;;;;;;;;;;;;25.94;45.55;94693.13;5079167;28;7567;-60
2022/11/01 08:47:27;;;;;;;;;;;;;;;25.94;44.62;94687.63;5075235;28;7059;-60
2022/11/01 08:49:55;;;;;;;;;;;;;;;25.92;45.10;94685.38;5083400;28;7251;-60
2022/11/01 08:52:22;;;;;;;;;;;;;;;25.91;45.69;94688.63;5084604;28;7151;-60
2022/11/01 08:54:59;;;;;;;;;;;;;;;25.90;45.78;94693.38;5078132;28;7141;-60
2022/11/01 08:58:03;;;;;;;;;;;;;;;25.88;45.73;94695.91;5087456;28;8512;-58
2022/11/01 09:00:35;;;;;;;;;;;;;;;25.88;45.75;94693.16;5082411;28;10086;-60
2022/11/01 09:03:02;;;;;;;;;;;;;;;25.86;45.44;94692.91;5076426;28;8478;-59
2022/11/01 09:05:37;;;;;;;;;;;;;;;25.85;45.51;94701.69;5091359;28;9706;-60
2022/11/01 09:08:03;;;;;;;;;;;;;;;25.83;45.78;94704.19;5079211;28;9552;-59
2022/11/01 09:10:58;;;;;;;;;;;;;;;25.83;45.63;94710.47;5082834;28;9094;-60
2022/11/01 09:13:26;;;;;;;;;;;;;;;25.82;45.79;94703.44;5082194;28;7438;-60
2022/11/01 09:15:54;;;;;;;;;;;;;;;25.81;45.20;94706.72;5081813;28;8538;-60
2022/11/01 09:18:20;;;;;;;;;;;;;;;25.81;45.59;94712.22;5080687;28;7558;-60
2022/11/01 09:20:52;;;;;;;;;;;;;;;25.80;45.50;94705.19;5077468;28;7272;-60
2022/11/01 09:23:18;;;;;;;;;;;;;;;25.79;45.53;94707.22;5080206;28;7333;-60
2022/11/01 09:25:51;;;;;;;;;;;;;;;25.78;46.00;94713.22;5086734;28;8499;-60
2022/11/01 09:28:20;;;;;;;;;;;;;;;25.78;45.65;94713.22;5092380;28;7535;-60
2022/11/01 09:30:48;;;;;;;;;;;;;;;25.79;45.52;94715.47;5082981;28;10582;-60
2022/11/01 09:33:22;;;;;;;;;;;;;;;25.81;45.84;94714.97;5092382;28;8179;-60
2022/11/01 09:35:55;;;;;;;;;;;;;;;25.77;46.02;94717.25;5090577;28;8649;-60
2022/11/01 09:38:23;;;;;;;;;;;;;;;25.78;45.84;94725.00;5082953;28;7035;-60
2022/11/01 09:41:16;;;;;;;;;;;;;;;25.77;45.53;94718.00;5087379;28;6933;-60
2022/11/01 09:43:50;;;;;;;;;;;;;;;25.78;45.91;94722.22;5073641;28;9066;-59
2022/11/01 09:46:24;;;;;;;;;;;;;;;25.75;46.39;94720.47;5075719;28;9513;-60
2022/11/01 09:48:55;;;;;;;;;;;;;;;25.76;46.30;94729.50;5076492;28;7147;-60
2022/11/01 09:51:28;;;;;;;;;;;;;;;25.76;46.35;94735.75;5081235;28;7065;-60
2022/11/01 09:54:00;;;;;;;;;;;;;;;25.78;45.88;94735.25;5081978;28;9325;-60
2022/11/01 09:56:55;;;;;;;;;;;;;;;25.77;45.78;94729.00;5090195;28;7235;-60
2022/11/01 09:59:39;;;;;;;;;;;;;;;25.80;46.43;94736.25;5084620;28;9529;-59
2022/11/01 10:02:25;;;;;;;;;;;;;;;25.79;46.13;94732.00;5081959;28;7263;-60
2022/11/01 10:05:15;;;;;;;;;;;;;;;25.78;45.67;94738.78;5086647;28;7195;-60
2022/11/01 10:07:55;;;;;;;;;;;;;;;25.75;46.59;94748.03;5082469;28;7204;-60
2022/11/01 10:10:34;;;;;;;;;;;;;;;25.74;46.55;94738.28;5076833;28;9046;-59
2022/11/01 10:13:19;;;;;;;;;;;;;;;25.74;45.52;94734.75;5074262;28;7274;-59
2022/11/01 10:16:04;;;;;;;;;;;;;;;25.70;45.66;94743.28;5075214;28;7083;-59
2022/11/01 10:18:40;;;;;;;;;;;;;;;25.68;45.84;94734.78;5090275;28;7131;-59
2022/11/01 10:21:15;;;;;;;;;;;;;;;25.69;46.72;94735.50;5085533;28;8294;-59
2022/11/01 10:23:51;;;;;;;;;;;;;;;25.68;46.10;94740.28;5075196;28;7355;-59
2022/11/01 10:26:28;;;;;;;;;;;;;;;25.67;46.30;94736.03;5085056;28;9751;-59
2022/11/01 10:29:18;;;;;;;;;;;;;;;25.67;45.70;94736.03;5079704;28;9114;-59
2022/11/01 10:31:50;;;;;;;;;;;;;;;25.67;45.64;94736.03;5090836;28;7272;-59
2022/11/01 10:34:31;;;;;;;;;;;;;;;25.67;46.21;94729.75;5078343;28;7091;-59
2022/11/01 10:37:42;;;;;;;;;;;;;;;25.67;45.79;94738.03;5080447;28;7257;-59
2022/11/01 10:40:14;;;;;;;;;;;;;;;25.66;45.78;94740.06;5008427;28;7290;-59
2022/11/01 10:42:40;;;;;;;;;;;;;;;25.65;46.13;94741.28;5011195;28;8801;-60
2022/11/01 10:45:14;;;;;;;;;;;;;;;25.65;46.35;94740.53;5011889;28;7233;-59
2022/11/01 10:47:56;;;;;;;;;;;;;;;25.64;46.39;94731.53;5017580;28;9441;-60
2022/11/01 10:50:29;;;;;;;;;;;;;;;25.63;46.55;94727.28;4994432;28;7127;-59
2022/11/01 10:53:02;;;;;;;;;;;;;;;25.62;46.18;94725.03;4993997;28;7271;-60
2022/11/01 10:55:37;;;;;;;;;;;;;;;25.63;45.71;94732.03;5010567;28;7179;-59
2022/11/01 10:58:36;;;;;;;;;;;;;;;25.61;46.73;94720.75;5008070;28;7289;-59
2022/11/01 11:01:11;;;;;;;;;;;;;;;25.61;46.39;94727.03;5010589;28;8683;-60
2022/11/01 11:03:49;;;;;;;;;;;;;;;25.61;46.34;94723.50;5011343;28;9260;-59
2022/11/01 11:06:16;;;;;;;;;;;;;;;25.62;46.50;94728.50;4992391;28;7032;-59
2022/11/01 11:08:50;;;;;;;;;;;;;;;25.61;46.74;94724.28;5024878;28;7269;-59
2022/11/01 11:11:27;;;;;;;;;;;;;;;25.62;45.79;94720.25;4998911;28;7141;-59
2022/11/01 11:14:03;;;;;;;;;;;;;;;25.61;46.08;94727.03;5065747;28;7174;-59
2022/11/01 11:16:43;;;;;;;;;;;;;;;25.60;46.23;94730.28;5084244;28;8805;-59
2022/11/01 11:19:18;;;;;;;;;;;;;;;25.60;46.24;94722.03;5072145;28;7153;-60
2022/11/01 11:21:48;;;;;;;;;;;;;;;25.58;46.01;94722.50;5072709;28;7217;-60
2022/11/01 11:24:29;;;;;;;;;;;;;;;25.58;46.23;94717.00;5089205;28;7332;-59
2022/11/01 11:27:31;;;;;;;;;;;;;;;25.59;45.98;94723.28;5091429;28;6994;-60
2022/11/01 11:30:31;;;;;;;;;;;;;;;25.58;47.02;94721.78;5038316;28;7415;-59
2022/11/01 11:33:17;;;;;;;;;;;;;;;25.59;46.15;94718.50;4979997;28;7308;-59
2022/11/01 11:35:54;;;;;;;;;;;;;;;25.60;46.34;94724.78;4970577;28;7334;-60
2022/11/01 11:38:46;;;;;;;;;;;;;;;25.59;46.74;94717.75;4969898;28;9099;-60
2022/11/01 11:41:50;;;;;;;;;;;;;;;25.57;46.31;94723.78;4972741;28;7218;-59
2022/11/01 11:44:45;;;;;;;;;;;;;;;25.56;46.12;94718.75;4915242;29;9373;-59
2022/11/01 11:47:43;;;;;;;;;;;;;;;25.53;46.22;94728.78;4896680;29;7306;-59
2022/11/01 11:50:58;;;;;;;;;;;;;;;25.55;46.93;94725.53;4915304;29;7169;-59
2022/11/01 11:53:32;;;;;;;;;;;;;;;25.55;46.16;94725.53;4870402;29;7445;-60
2022/11/01 11:56:05;;;;;;;;;;;;;;;25.53;46.62;94723.28;4876809;29;7446;-59
2022/11/01 11:58:50;;;;;;;;;;;;;;;25.53;46.37;94723.28;4877537;29;9030;-59
2022/11/01 12:01:28;;;;;;;;;;;;;;;25.55;46.54;94729.03;4877453;29;9142;-59
2022/11/01 12:04:05;;;;;;;;;;;;;;;25.54;46.82;94727.53;4860000;29;7345;-60
2022/11/01 12:06:37;;;;;;;;;;;;;;;25.51;46.58;94716.78;4871128;29;9101;-59
2022/11/01 12:09:37;;;;;;;;;;;;;;;25.54;47.01;94716.50;4909935;29;7356;-59
2022/11/01 12:12:15;;;;;;;;;;;;;;;25.52;46.52;94715.50;4930904;29;7191;-59
2022/11/01 12:14:50;;;;;;;;;;;;;;;25.50;46.87;94705.00;4958750;28;7160;-60
2022/11/01 12:17:24;;;;;;;;;;;;;;;25.55;46.25;94711.75;5008855;28;7235;-60
2022/11/01 12:20:15;;;;;;;;;;;;;;;25.53;46.11;94709.50;5008960;28;7565;-60
2022/11/01 12:23:05;;;;;;;;;;;;;;;25.55;45.87;94706.25;5025977;28;7007;-59
2022/11/01 12:25:42;;;;;;;;;;;;;;;25.54;46.03;94699.97;5091792;28;7321;-59
2022/11/01 12:28:18;;;;;;;;;;;;;;;25.51;46.47;94692.75;5089249;28;9277;-60
2022/11/01 12:30:49;;;;;;;;;;;;;;;25.52;46.55;94690.72;5072849;28;9718;-59
2022/11/01 12:33:48;;;;;;;;;;;;;;;25.50;46.53;94693.97;5071821;28;7238;-60
2022/11/01 12:36:23;;;;;;;;;;;;;;;25.49;46.56;94697.97;5073062;28;8868;-58
2022/11/01 12:39:13;;;;;;;;;;;;;;;25.50;46.07;94699.50;5073316;28;6981;-59
2022/11/01 12:41:48;;;;;;;;;;;;;;;25.50;46.42;94699.50;5088597;28;7094;-59
2022/11/01 12:44:33;;;;;;;;;;;;;;;25.53;46.64;94698.50;5102073;28;7403;-59
2022/11/01 12:47:06;;;;;;;;;;;;;;;25.51;46.57;94695.50;5109112;28;7303;-59
2022/11/01 12:50:09;;;;;;;;;;;;;;;25.51;46.16;94690.00;5092254;28;9185;-59
2022/11/01 12:53:24;;;;;;;;;;;;;;;25.51;46.72;94689.22;5093072;28;7012;-60
2022/11/01 12:56:02;;;;;;;;;;;;;;;25.54;46.76;94685.44;4986766;28;7353;-59
2022/11/01 12:58:38;;;;;;;;;;;;;;;25.57;46.24;94674.19;5012307;28;7223;-59
2022/11/01 13:01:27;;;;;;;;;;;;;;;25.58;46.52;94678.44;5005297;28;9079;-59
2022/11/01 13:04:10;;;;;;;;;;;;;;;25.61;46.73;94671.94;4989007;28;7204;-60
2022/11/01 13:10:24;;;;;;;;;;;;;;;25.63;46.06;94668.66;4977004;28;7159;-59
2022/11/01 13:13:08;;;;;;;;;;;;;;;25.66;46.18;94671.19;4994310;28;6979;-59
2022/11/01 13:15:54;;;;;;;;;;;;;;;25.65;46.51;94677.16;4994877;28;6997;-59
2022/11/01 13:18:33;;;;;;;;;;;;;;;25.69;46.12;94678.41;4978403;28;7291;-59
2022/11/01 13:21:14;;;;;;;;;;;;;;;25.72;46.40;94680.19;4971689;28;7234;-59
2022/11/01 13:24:13;;;;;;;;;;;;;;;25.74;46.81;94676.91;4984417;28;7332;-59
2022/11/01 13:27:10;;;;;;;;;;;;;;;25.77;46.17;94673.16;4997405;28;7186;-59
2022/11/01 13:30:08;;;;;;;;;;;;;;;25.78;46.34;94680.91;4985929;28;8537;-59
2022/11/01 13:33:06;;;;;;;;;;;;;;;25.80;46.15;94680.38;4971676;28;7322;-60
2022/11/01 13:36:10;;;;;;;;;;;;;;;25.77;46.55;94673.91;4958942;28;7003;-59
2022/11/01 13:39:08;;;;;;;;;;;;;;;25.75;46.11;94676.41;4952281;28;7128;-60
2022/11/01 13:42:00;;;;;;;;;;;;;;;25.75;46.43;94681.91;4936362;29;6996;-60
2022/11/01 13:44:56;;;;;;;;;;;;;;;25.74;46.57;94677.66;4935468;29;7409;-60
2022/11/01 13:48:08;;;;;;;;;;;;;;;25.72;46.55;94687.69;4961291;28;8981;-60
2022/11/01 13:51:06;;;;;;;;;;;;;;;25.68;46.44;94687.94;4934376;29;9181;-59
2022/11/01 13:53:40;;;;;;;;;;;;;;;25.64;46.97;94689.47;4928232;29;9214;-59
2022/11/01 13:56:20;;;;;;;;;;;;;;;25.63;46.44;94685.94;4909274;29;7321;-59
2022/11/01 13:58:57;;;;;;;;;;;;;;;25.65;46.87;94685.44;4908640;29;7267;-59
2022/11/01 14:01:54;;;;;;;;;;;;;;;25.64;47.15;94683.94;4919954;29;9122;-59
2022/11/01 14:04:53;;;;;;;;;;;;;;;25.65;46.28;94688.94;5054414;28;6652;-58
2022/11/01 14:07:22;;;;;;;;;;;;;;;25.70;46.21;94690.94;5025589;28;7106;-58